createdAt,value
2023-02-15T00:02:21.146Z,33.53
2023-02-15T00:07:35.493Z,33.08
2023-02-15T00:12:40.339Z,35.00
2023-02-15T00:17:45.203Z,32.17
2023-02-15T00:22:52.795Z,30.35
2023-02-15T00:27:57.591Z,32.45
2023-02-15T00:33:02.546Z,31.65
2023-02-15T00:38:10.070Z,31.85
2023-02-15T00:43:15.235Z,30.17
2023-02-15T00:48:20.142Z,28.98
2023-02-15T00:53:27.916Z,30.35
2023-02-15T00:58:32.757Z,32.35
2023-02-15T01:03:38.154Z,30.95
2023-02-15T01:08:45.955Z,33.35
2023-02-15T01:13:50.757Z,30.63
2023-02-15T01:18:55.870Z,32.03
2023-02-15T01:24:07.612Z,30.17
2023-02-15T01:29:16.007Z,31.90
2023-02-15T01:34:21.253Z,29.77
2023-02-15T01:39:43.700Z,31.08
2023-02-15T01:44:55.596Z,33.42
2023-02-15T01:50:04.399Z,30.02
2023-02-15T01:55:10.308Z,30.48
2023-02-15T02:00:18.641Z,30.58
2023-02-15T02:05:23.635Z,30.67
2023-02-15T02:10:29.242Z,31.65
2023-02-15T02:15:42.034Z,31.13
2023-02-15T02:21:00.045Z,29.90
2023-02-15T02:26:19.561Z,34.05
2023-02-15T02:31:42.159Z,36.85
2023-02-15T02:36:53.658Z,34.80
2023-02-15T02:42:02.393Z,33.58
2023-02-15T02:47:11.324Z,30.70
2023-02-15T02:52:30.932Z,31.42
2023-02-15T02:57:40.427Z,30.55
2023-02-15T03:02:46.981Z,40.37
2023-02-15T03:07:53.992Z,32.85
2023-02-15T03:13:01.688Z,36.72
2023-02-15T03:18:09.711Z,36.40
2023-02-15T03:23:16.508Z,32.90
2023-02-15T03:28:26.713Z,36.38
2023-02-15T03:33:32.214Z,46.92
2023-02-15T03:38:40.705Z,46.80
2023-02-15T03:43:52.965Z,50.53
2023-02-15T03:48:59.984Z,49.90
2023-02-15T03:54:05.817Z,40.35
2023-02-15T03:59:25.576Z,35.83
2023-02-15T04:04:37.329Z,39.23
2023-02-15T04:09:54.441Z,36.08
2023-02-15T04:15:14.102Z,38.05
2023-02-15T04:20:31.304Z,32.20
2023-02-15T04:25:36.037Z,36.78
2023-02-15T04:30:43.391Z,35.47
2023-02-15T04:35:49.165Z,39.90
2023-02-15T04:40:54.858Z,33.15
2023-02-15T04:46:02.528Z,40.80
2023-02-15T04:51:09.330Z,35.35
2023-02-15T04:56:14.120Z,34.25
2023-02-15T05:01:21.785Z,33.53
2023-02-15T05:06:26.840Z,33.47
2023-02-15T05:11:31.567Z,36.47
2023-02-15T05:16:38.981Z,39.47
2023-02-15T05:21:43.753Z,38.30
2023-02-15T05:27:00.765Z,42.72
2023-02-15T05:32:08.519Z,33.08
2023-02-15T05:37:13.444Z,33.83
2023-02-15T05:42:18.572Z,30.63
2023-02-15T05:47:25.973Z,31.60
2023-02-15T05:52:30.679Z,29.35
2023-02-15T05:57:35.500Z,31.33
2023-02-15T06:02:42.915Z,28.02
2023-02-15T06:07:48.884Z,30.88
2023-02-15T06:12:53.684Z,31.67
2023-02-15T06:18:01.180Z,28.60
2023-02-15T06:23:06.014Z,31.33
2023-02-15T06:28:10.871Z,39.38
2023-02-15T06:33:18.320Z,42.90
2023-02-15T06:38:23.080Z,37.13
2023-02-15T06:43:27.878Z,42.05
2023-02-15T06:48:35.320Z,36.15
2023-02-15T06:53:42.408Z,32.78
2023-02-15T06:58:47.512Z,29.73
2023-02-15T07:03:55.541Z,34.10
2023-02-15T07:09:00.483Z,36.28
2023-02-15T07:14:05.416Z,44.13
2023-02-15T07:19:13.040Z,40.58
2023-02-15T07:24:18.072Z,37.75
2023-02-15T07:29:22.961Z,30.05
2023-02-15T07:34:30.513Z,26.92
2023-02-15T07:39:35.380Z,26.80
2023-02-15T07:44:40.149Z,29.75
2023-02-15T07:49:50.572Z,26.55
2023-02-15T07:54:55.333Z,35.25
2023-02-15T08:00:00.254Z,30.25
2023-02-15T08:05:07.969Z,27.75
2023-02-15T08:10:35.746Z,25.35
2023-02-15T08:15:42.483Z,34.20
2023-02-15T08:20:52.805Z,28.75
2023-02-15T08:31:08.039Z,25.67
2023-02-15T08:36:17.120Z,24.88
2023-02-15T08:41:23.162Z,27.52
2023-02-15T08:46:36.753Z,24.65
2023-02-15T08:51:56.467Z,22.88
2023-02-15T08:57:01.318Z,23.80
2023-02-15T09:02:06.653Z,21.08
2023-02-15T09:07:14.226Z,27.75
2023-02-15T09:12:19.025Z,23.23
2023-02-15T09:17:24.073Z,27.25
2023-02-15T09:22:32.502Z,29.65
2023-02-15T09:27:37.961Z,23.83
2023-02-15T09:32:43.169Z,22.67
2023-02-15T09:37:50.674Z,22.48
2023-02-15T09:43:03.321Z,22.58
2023-02-15T09:48:15.551Z,19.25
2023-02-15T09:53:33.464Z,20.08
2023-02-15T09:58:44.599Z,18.52
2023-02-15T10:09:35.061Z,19.60
2023-02-15T10:14:58.344Z,20.35
2023-02-15T10:20:12.119Z,17.08
2023-02-15T10:25:36.218Z,19.38
2023-02-15T10:30:46.157Z,17.42
2023-02-15T10:41:09.142Z,14.60
2023-02-15T10:46:20.875Z,16.73
2023-02-15T10:51:30.712Z,14.10
2023-02-15T10:56:40.413Z,16.60
2023-02-15T11:01:46.331Z,14.30
2023-02-15T11:06:56.014Z,19.08
2023-02-15T11:12:03.948Z,20.30
2023-02-15T11:17:13.203Z,15.70
2023-02-15T11:22:18.211Z,14.10
2023-02-15T11:27:27.346Z,21.77
2023-02-15T11:32:34.836Z,14.23
2023-02-15T11:37:44.315Z,13.48
2023-02-15T11:42:53.703Z,17.02
2023-02-15T11:47:58.569Z,15.80
2023-02-15T11:53:11.800Z,14.18
2023-02-15T11:58:27.533Z,16.00
2023-02-15T12:03:34.143Z,14.57
2023-02-15T12:08:42.315Z,16.98
2023-02-15T12:19:33.208Z,14.63
2023-02-15T12:24:41.069Z,17.42
2023-02-15T12:29:47.223Z,16.90
2023-02-15T12:34:55.727Z,14.57
2023-02-15T12:40:01.335Z,14.60
2023-02-15T12:45:07.188Z,16.35
2023-02-15T12:50:18.439Z,13.98
2023-02-15T12:55:25.595Z,14.60
2023-02-15T13:00:43.388Z,14.60
2023-02-15T13:05:52.938Z,12.95
2023-02-15T13:10:58.759Z,13.38
2023-02-15T13:16:05.133Z,13.43
2023-02-15T13:21:15.056Z,16.67
2023-02-15T13:26:22.159Z,13.55
2023-02-15T13:31:29.082Z,14.32
2023-02-15T13:36:42.587Z,18.30
2023-02-15T13:41:52.564Z,13.15
2023-02-15T13:47:05.162Z,16.90
2023-02-15T13:52:19.422Z,13.90
2023-02-15T13:57:28.800Z,13.18
2023-02-15T14:02:46.691Z,14.60
2023-02-15T14:07:59.178Z,14.82
2023-02-15T14:13:14.954Z,14.43
2023-02-15T14:18:23.243Z,17.80
2023-02-15T14:29:17.886Z,14.55
2023-02-15T14:34:25.260Z,13.88
2023-02-15T14:39:48.658Z,13.70
2023-02-15T14:44:56.676Z,16.42
2023-02-15T14:50:01.598Z,18.05
2023-02-15T14:55:11.396Z,13.68
2023-02-15T15:00:37.204Z,15.68
2023-02-15T15:05:51.787Z,18.52
2023-02-15T15:11:00.917Z,18.17
2023-02-15T15:16:28.767Z,13.50
2023-02-15T15:21:48.584Z,11.90
2023-02-15T15:27:16.186Z,15.53
2023-02-15T15:32:23.389Z,15.57
2023-02-15T15:37:43.787Z,18.35
2023-02-15T15:42:58.653Z,14.75
2023-02-15T15:48:08.853Z,14.60
2023-02-15T15:58:28.121Z,15.25
2023-02-15T16:03:33.044Z,15.70
2023-02-15T16:08:38.658Z,15.80
2023-02-15T16:13:47.262Z,15.02
2023-02-15T16:18:52.568Z,17.08
2023-02-15T16:24:15.203Z,21.10
2023-02-15T16:29:30.211Z,32.08
2023-02-15T16:34:36.509Z,30.08
2023-02-15T16:39:44.726Z,26.95
2023-02-15T16:44:54.206Z,29.90
2023-02-15T16:50:00.595Z,28.00
2023-02-15T16:55:07.653Z,29.95
2023-02-15T17:00:24.334Z,47.53
2023-02-15T17:05:34.143Z,45.25
2023-02-15T17:10:46.098Z,39.78
2023-02-15T17:16:17.452Z,40.28
2023-02-15T17:21:23.670Z,45.83
2023-02-15T17:26:31.398Z,59.33
2023-02-15T17:31:39.288Z,52.40
2023-02-15T17:37:00.918Z,49.20
2023-02-15T17:42:08.913Z,50.72
2023-02-15T17:47:18.319Z,74.80
2023-02-15T17:52:23.326Z,81.28
2023-02-15T17:57:29.993Z,70.95
2023-02-15T18:02:51.401Z,53.72
2023-02-15T18:08:11.210Z,41.72
2023-02-15T18:13:22.496Z,42.58
2023-02-15T18:24:17.235Z,44.17
2023-02-15T18:29:22.522Z,40.75
2023-02-15T18:34:28.791Z,43.45
2023-02-15T18:39:40.321Z,57.80
2023-02-15T18:44:48.006Z,56.75
2023-02-15T18:49:53.380Z,65.95
2023-02-15T18:55:05.687Z,68.75
2023-02-15T19:00:16.928Z,85.25
2023-02-15T19:05:22.777Z,85.35
2023-02-15T19:10:31.029Z,102.82
2023-02-15T19:15:36.250Z,117.43
2023-02-15T19:20:43.787Z,118.07
2023-02-15T19:25:52.308Z,127.90
2023-02-15T19:30:57.412Z,131.40
2023-02-15T19:36:02.766Z,125.18
2023-02-15T19:41:15.196Z,117.88
2023-02-15T19:46:21.851Z,104.30
2023-02-15T19:51:28.279Z,95.55
2023-02-15T19:56:36.248Z,100.72
2023-02-15T20:01:41.434Z,100.00
2023-02-15T20:06:46.620Z,100.68
2023-02-15T20:11:54.578Z,80.65
2023-02-15T20:16:59.708Z,83.10
2023-02-15T20:22:05.975Z,73.93
2023-02-15T20:27:18.631Z,92.45
2023-02-15T20:32:30.335Z,107.60
2023-02-15T20:37:36.099Z,105.95
2023-02-15T20:42:43.650Z,117.13
2023-02-15T20:47:48.927Z,126.88
2023-02-15T20:52:55.310Z,133.40
2023-02-15T20:58:02.891Z,134.90
2023-02-15T21:03:16.666Z,140.02
2023-02-15T21:08:24.294Z,138.70
2023-02-15T21:13:33.885Z,147.18
2023-02-15T21:18:42.687Z,148.43
2023-02-15T21:23:51.153Z,127.03
2023-02-15T21:28:58.774Z,125.32
2023-02-15T21:34:04.531Z,123.57
2023-02-15T21:39:51.863Z,104.00
2023-02-15T21:45:11.860Z,92.82
2023-02-15T21:50:34.361Z,94.33
2023-02-15T21:55:39.181Z,94.03
2023-02-15T22:00:46.930Z,75.68
2023-02-15T22:05:59.484Z,67.22
2023-02-15T22:11:06.262Z,61.75
2023-02-15T22:16:19.591Z,64.38
2023-02-15T22:21:26.835Z,68.63
2023-02-15T22:26:31.785Z,65.63
2023-02-15T22:31:39.445Z,52.58
2023-02-15T22:36:44.420Z,49.55
2023-02-15T22:41:49.408Z,48.67
2023-02-15T22:46:56.900Z,51.63
2023-02-15T22:52:04.532Z,43.88
2023-02-15T22:57:11.747Z,36.95
2023-02-15T23:02:20.261Z,30.52
2023-02-15T23:07:25.264Z,25.65
2023-02-15T23:12:52.493Z,27.40
2023-02-15T23:18:06.039Z,30.63
2023-02-15T23:23:12.568Z,35.30
2023-02-15T23:28:22.336Z,32.70
2023-02-15T23:33:31.365Z,32.38
2023-02-15T23:38:37.499Z,30.58
2023-02-15T23:43:44.309Z,32.25
2023-02-15T23:48:58.663Z,28.75
2023-02-15T23:54:05.774Z,27.38
2023-02-15T23:59:11.142Z,28.10
